Time;durP1;ratioP1;P1;durP2;ratioP2;P2;SDS_P1;SDS_P2;PMS_P1;PMS_P2;Temp;Humidity;BMP_temperature;BMP_pressure;BME280_temperature;BME280_humidity;BME280_pressure;Samples;Min_cycle;Max_cycle;Signal;HPM_P1;HPM_P2
2022/06/19 00:00:17;;;;;;;;;3.00;1.67;;;;;;;;5037743;28;45334;-73
2022/06/19 00:02:43;;;;;;;;;4.33;2.00;;;;;;;;5037983;28;45222;-73
2022/06/19 00:05:09;;;;;;;;;3.67;3.00;;;;;;;;5037582;28;47138;-73
2022/06/19 00:07:35;;;;;;;;;1.67;1.67;;;;;;;;5037555;28;45358;-73
2022/06/19 00:10:00;;;;;;;;;4.33;2.00;;;;;;;;5037428;28;45230;-72
2022/06/19 00:12:25;;;;;;;;;2.00;2.00;;;;;;;;5037776;28;45247;-73
2022/06/19 00:14:50;;;;;;;;;3.00;1.00;;;;;;;;5037609;28;45323;-73
2022/06/19 00:17:16;;;;;;;;;4.33;1.33;;;;;;;;5037523;28;45427;-73
2022/06/19 00:19:41;;;;;;;;;1.00;1.00;;;;;;;;5037542;28;45270;-73
2022/06/19 00:22:07;;;;;;;;;6.67;2.00;;;;;;;;5037555;28;45318;-70
2022/06/19 00:24:32;;;;;;;;;4.00;2.33;;;;;;;;5037033;28;46127;-70
2022/06/19 00:26:57;;;;;;;;;4.33;3.00;;;;;;;;5037560;28;45463;-70
2022/06/19 00:29:23;;;;;;;;;3.33;2.67;;;;;;;;5037409;28;45317;-72
2022/06/19 00:31:48;;;;;;;;;5.33;2.00;;;;;;;;5037509;28;45365;-72
2022/06/19 00:34:13;;;;;;;;;1.67;1.00;;;;;;;;5037124;28;45491;-69
2022/06/19 00:36:38;;;;;;;;;3.33;1.33;;;;;;;;5037213;28;45354;-70
2022/06/19 00:39:04;;;;;;;;;2.33;1.00;;;;;;;;5037397;28;45408;-71
2022/06/19 00:41:39;;;;;;;;;5.67;1.00;;;;;;;;5037331;28;45304;-71
2022/06/19 00:44:06;;;;;;;;;2.00;1.00;;;;;;;;5037082;28;46778;-70
2022/06/19 00:46:37;;;;;;;;;4.00;1.00;;;;;;;;5037149;28;45801;-70
2022/06/19 00:49:03;;;;;;;;;1.00;1.00;;;;;;;;5037164;28;45421;-71
2022/06/19 00:51:28;;;;;;;;;4.00;1.00;;;;;;;;5037225;28;45539;-70
2022/06/19 00:53:53;;;;;;;;;2.00;1.67;;;;;;;;5036794;28;46185;-70
2022/06/19 00:56:20;;;;;;;;;1.67;1.00;;;;;;;;5058255;28;45545;-73
2022/06/19 00:58:47;;;;;;;;;1.67;0.00;;;;;;;;5056944;28;45284;-75
2022/06/19 01:01:14;;;;;;;;;5.67;0.33;;;;;;;;5058314;28;45298;-76
2022/06/19 01:04:12;;;;;;;;;6.67;1.00;;;;;;;;5070199;28;46605;-72
2022/06/19 01:06:37;;;;;;;;;2.00;1.00;;;;;;;;5030263;28;45602;-72
2022/06/19 01:09:03;;;;;;;;;4.00;0.67;;;;;;;;5017054;28;45550;-73
2022/06/19 01:11:31;;;;;;;;;0.00;0.00;;;;;;;;5017484;28;45478;-72
2022/06/19 01:13:57;;;;;;;;;3.33;1.00;;;;;;;;5028837;28;45600;-72
2022/06/19 01:16:22;;;;;;;;;0.33;0.33;;;;;;;;5037295;28;45230;-73
2022/06/19 01:18:47;;;;;;;;;0.00;0.00;;;;;;;;5037407;28;45405;-73
2022/06/19 01:21:33;;;;;;;;;1.00;1.00;;;;;;;;5036780;28;45500;-71
2022/06/19 01:24:06;;;;;;;;;0.33;0.00;;;;;;;;4996103;28;46352;-73
2022/06/19 01:26:34;;;;;;;;;2.00;0.00;;;;;;;;5017627;28;45402;-72
2022/06/19 01:29:00;;;;;;;;;2.00;1.00;;;;;;;;5017807;28;45311;-72
2022/06/19 01:31:30;;;;;;;;;3.67;0.00;;;;;;;;5018332;28;45673;-72
2022/06/19 01:34:26;;;;;;;;;0.00;0.00;;;;;;;;5017140;28;45625;-73
2022/06/19 01:36:53;;;;;;;;;0.33;0.33;;;;;;;;5017538;28;45327;-74
2022/06/19 01:39:19;;;;;;;;;2.00;1.00;;;;;;;;5017758;28;45391;-72
2022/06/19 01:41:44;;;;;;;;;0.33;0.33;;;;;;;;5024638;28;45479;-72
2022/06/19 01:44:10;;;;;;;;;1.00;0.00;;;;;;;;5039734;28;46118;-73
2022/06/19 01:46:35;;;;;;;;;1.00;0.00;;;;;;;;5039999;28;45262;-73
2022/06/19 01:49:01;;;;;;;;;4.00;1.00;;;;;;;;5039869;28;45399;-73
2022/06/19 01:51:26;;;;;;;;;5.67;1.00;;;;;;;;5039565;28;45418;-75
2022/06/19 01:53:56;;;;;;;;;1.00;1.00;;;;;;;;5039340;28;46711;-73
2022/06/19 01:56:22;;;;;;;;;1.00;0.00;;;;;;;;5039621;28;45302;-73
2022/06/19 01:58:49;;;;;;;;;2.67;0.00;;;;;;;;5039630;28;45440;-73
2022/06/19 02:01:14;;;;;;;;;3.00;0.00;;;;;;;;5039760;28;45172;-73
2022/06/19 02:03:46;;;;;;;;;2.67;1.00;;;;;;;;5039366;28;45611;-74
2022/06/19 02:06:12;;;;;;;;;1.67;0.00;;;;;;;;5039615;28;45477;-74
2022/06/19 02:08:38;;;;;;;;;1.00;1.00;;;;;;;;5039529;28;45322;-74
2022/06/19 02:11:04;;;;;;;;;1.33;0.00;;;;;;;;5039447;28;45769;-74
2022/06/19 02:13:32;;;;;;;;;2.67;0.00;;;;;;;;5039364;28;45610;-76
2022/06/19 02:15:57;;;;;;;;;0.00;0.00;;;;;;;;5039317;28;45414;-75
2022/06/19 02:18:25;;;;;;;;;1.00;1.00;;;;;;;;5054406;28;45448;-73
2022/06/19 02:20:52;;;;;;;;;0.00;0.00;;;;;;;;5058923;28;45416;-74
2022/06/19 02:23:24;;;;;;;;;0.00;0.00;;;;;;;;5058508;28;45796;-73
2022/06/19 02:25:49;;;;;;;;;4.00;0.00;;;;;;;;5067838;28;45348;-74
2022/06/19 02:28:15;;;;;;;;;2.67;1.00;;;;;;;;5079302;28;45352;-72
2022/06/19 02:30:41;;;;;;;;;1.67;0.00;;;;;;;;5074232;28;45499;-73
2022/06/19 02:33:06;;;;;;;;;2.00;0.00;;;;;;;;5058927;28;46151;-77
2022/06/19 02:35:32;;;;;;;;;0.00;0.00;;;;;;;;5060079;28;45147;-74
2022/06/19 02:37:57;;;;;;;;;0.00;0.00;;;;;;;;5060303;28;45234;-74
2022/06/19 02:40:38;;;;;;;;;0.00;0.00;;;;;;;;5059062;28;45304;-75
2022/06/19 02:43:07;;;;;;;;;1.33;0.00;;;;;;;;5073872;28;47370;-75
2022/06/19 02:45:33;;;;;;;;;1.00;1.00;;;;;;;;5059943;28;45262;-78
2022/06/19 02:47:59;;;;;;;;;2.00;0.00;;;;;;;;5068018;28;45455;-74
2022/06/19 02:50:32;;;;;;;;;3.00;0.33;;;;;;;;5077322;28;45377;-75
2022/06/19 02:52:58;;;;;;;;;0.00;0.00;;;;;;;;5073454;28;45392;-73
2022/06/19 02:55:23;;;;;;;;;0.00;0.00;;;;;;;;5059233;28;45332;-77
2022/06/19 02:57:49;;;;;;;;;0.00;0.00;;;;;;;;5059030;28;45262;-73
2022/06/19 03:00:19;;;;;;;;;1.00;0.00;;;;;;;;5060199;28;45439;-77
2022/06/19 03:02:44;;;;;;;;;0.00;0.00;;;;;;;;5059545;28;46335;-75
2022/06/19 03:05:14;;;;;;;;;1.00;0.00;;;;;;;;5069560;28;45309;-74
2022/06/19 03:07:40;;;;;;;;;1.33;0.00;;;;;;;;5059904;28;45441;-74
2022/06/19 03:10:05;;;;;;;;;0.33;0.33;;;;;;;;5070344;28;45319;-75
2022/06/19 03:12:30;;;;;;;;;1.33;0.00;;;;;;;;5075820;28;45331;-80
2022/06/19 03:14:56;;;;;;;;;0.00;0.00;;;;;;;;5058426;28;45301;-80
2022/06/19 03:17:21;;;;;;;;;2.67;0.67;;;;;;;;5067932;28;45384;-77
2022/06/19 03:19:47;;;;;;;;;0.00;0.00;;;;;;;;5078847;28;45407;-75
2022/06/19 03:22:13;;;;;;;;;0.00;0.00;;;;;;;;5078059;28;45859;-73
2022/06/19 03:24:38;;;;;;;;;0.00;0.00;;;;;;;;5076758;28;45504;-73
2022/06/19 03:27:04;;;;;;;;;0.67;0.67;;;;;;;;5073722;28;45484;-72
2022/06/19 03:29:29;;;;;;;;;0.33;0.33;;;;;;;;5058352;28;45409;-72
2022/06/19 03:31:55;;;;;;;;;3.33;0.00;;;;;;;;5072667;28;46283;-72
2022/06/19 03:34:20;;;;;;;;;4.00;0.00;;;;;;;;5059388;28;45806;-71
2022/06/19 03:36:45;;;;;;;;;2.67;0.00;;;;;;;;5059472;28;45400;-72
2022/06/19 03:39:10;;;;;;;;;2.00;0.00;;;;;;;;5063894;28;45897;-71
2022/06/19 03:41:37;;;;;;;;;3.33;0.00;;;;;;;;5075473;28;46196;-70
2022/06/19 03:44:02;;;;;;;;;2.00;0.00;;;;;;;;5038100;28;45294;-70
2022/06/19 03:46:28;;;;;;;;;1.00;0.00;;;;;;;;5055727;28;45371;-69
2022/06/19 03:48:53;;;;;;;;;2.00;0.67;;;;;;;;5076834;28;45536;-70
2022/06/19 03:51:23;;;;;;;;;1.00;1.00;;;;;;;;5071749;28;47417;-71
2022/06/19 03:53:48;;;;;;;;;1.33;0.00;;;;;;;;5058015;28;45315;-70
2022/06/19 03:56:18;;;;;;;;;0.67;0.67;;;;;;;;5057798;28;45321;-70
2022/06/19 03:58:46;;;;;;;;;1.33;1.00;;;;;;;;5057751;28;45265;-74
2022/06/19 04:01:13;;;;;;;;;1.33;1.00;;;;;;;;5058201;28;45472;-72
2022/06/19 04:03:39;;;;;;;;;1.67;1.00;;;;;;;;5058573;28;45450;-72
2022/06/19 04:06:04;;;;;;;;;2.33;0.67;;;;;;;;5073306;28;45375;-73
2022/06/19 04:08:29;;;;;;;;;5.00;0.00;;;;;;;;5075555;28;45464;-73
2022/06/19 04:10:54;;;;;;;;;0.67;0.67;;;;;;;;5058648;28;46508;-72
2022/06/19 04:13:20;;;;;;;;;2.00;0.00;;;;;;;;5058354;28;45303;-71
2022/06/19 04:15:45;;;;;;;;;2.33;0.00;;;;;;;;5059396;28;45340;-72
2022/06/19 04:18:10;;;;;;;;;2.33;0.00;;;;;;;;5068437;28;45318;-72
2022/06/19 04:20:36;;;;;;;;;0.00;0.00;;;;;;;;5069880;28;45698;-73
2022/06/19 04:23:01;;;;;;;;;0.00;0.00;;;;;;;;5076985;28;45245;-72
2022/06/19 04:25:26;;;;;;;;;0.00;0.00;;;;;;;;5058338;28;45869;-72
2022/06/19 04:27:51;;;;;;;;;0.67;0.00;;;;;;;;5057908;28;45261;-72
2022/06/19 04:30:16;;;;;;;;;0.00;0.00;;;;;;;;5057305;28;45611;-72
2022/06/19 04:32:42;;;;;;;;;15.67;15.67;;;;;;;;5057177;28;45365;-73
2022/06/19 04:35:07;;;;;;;;;2.00;0.67;;;;;;;;5063673;28;45345;-72
2022/06/19 04:37:33;;;;;;;;;2.00;1.00;;;;;;;;5065804;28;45189;-72
2022/06/19 04:39:58;;;;;;;;;3.00;0.00;;;;;;;;5058353;28;45520;-73
2022/06/19 04:42:23;;;;;;;;;0.00;0.00;;;;;;;;5057016;28;45263;-73
2022/06/19 04:44:48;;;;;;;;;1.00;1.00;;;;;;;;5063602;28;45395;-73
2022/06/19 04:47:13;;;;;;;;;1.00;1.00;;;;;;;;5072704;28;45414;-73
2022/06/19 04:49:39;;;;;;;;;1.00;1.00;;;;;;;;5060727;28;47131;-73
2022/06/19 04:52:04;;;;;;;;;1.33;0.67;;;;;;;;5072552;28;45440;-71
2022/06/19 04:54:29;;;;;;;;;0.00;0.00;;;;;;;;5081031;28;45291;-72
2022/06/19 04:56:54;;;;;;;;;2.00;1.00;;;;;;;;5081050;28;45437;-73
2022/06/19 04:59:20;;;;;;;;;2.67;1.00;;;;;;;;5078201;28;45422;-74
2022/06/19 05:01:46;;;;;;;;;3.33;1.00;;;;;;;;5080447;28;45259;-76
2022/06/19 05:04:11;;;;;;;;;3.00;1.00;;;;;;;;5065685;28;45159;-74
2022/06/19 05:06:37;;;;;;;;;1.67;0.00;;;;;;;;5070422;28;45476;-71
2022/06/19 05:09:02;;;;;;;;;0.33;0.00;;;;;;;;5061547;28;46216;-72
2022/06/19 05:11:28;;;;;;;;;0.33;0.33;;;;;;;;5061149;28;45491;-74
2022/06/19 05:13:54;;;;;;;;;5.00;0.00;;;;;;;;5068746;28;45499;-75
2022/06/19 05:16:21;;;;;;;;;0.00;0.00;;;;;;;;5080141;28;45444;-75
2022/06/19 05:18:47;;;;;;;;;2.00;2.00;;;;;;;;5067140;28;46661;-78
2022/06/19 05:21:13;;;;;;;;;3.00;1.67;;;;;;;;5079936;28;45284;-79
2022/06/19 05:23:40;;;;;;;;;1.33;1.00;;;;;;;;5079875;28;45292;-77
2022/06/19 05:26:11;;;;;;;;;2.00;0.00;;;;;;;;5078064;28;45338;-75
2022/06/19 05:28:36;;;;;;;;;0.33;0.33;;;;;;;;5080070;28;48745;-76
2022/06/19 05:31:02;;;;;;;;;1.00;1.00;;;;;;;;5079582;28;45468;-76
2022/06/19 05:33:27;;;;;;;;;1.00;0.33;;;;;;;;5080324;28;45259;-76
2022/06/19 05:35:53;;;;;;;;;1.00;1.00;;;;;;;;5080545;28;45296;-77
2022/06/19 05:38:18;;;;;;;;;1.67;0.00;;;;;;;;5070563;28;45365;-74
2022/06/19 05:40:44;;;;;;;;;4.00;0.00;;;;;;;;5060058;28;45329;-74
2022/06/19 05:43:09;;;;;;;;;2.00;0.33;;;;;;;;5060021;28;45246;-74
2022/06/19 05:45:34;;;;;;;;;1.33;0.33;;;;;;;;5074624;28;45404;-74
2022/06/19 05:47:59;;;;;;;;;5.00;0.67;;;;;;;;5061425;28;45459;-75
2022/06/19 05:50:25;;;;;;;;;5.00;0.67;;;;;;;;5072630;28;45396;-75
2022/06/19 05:52:50;;;;;;;;;1.00;0.00;;;;;;;;5061320;28;45439;-75
2022/06/19 05:55:15;;;;;;;;;1.00;1.00;;;;;;;;5059894;28;45219;-74
2022/06/19 05:57:40;;;;;;;;;1.00;0.00;;;;;;;;5070058;28;46254;-75
2022/06/19 06:00:08;;;;;;;;;3.00;1.00;;;;;;;;5077860;28;45378;-76
2022/06/19 06:02:34;;;;;;;;;1.00;1.00;;;;;;;;5062567;28;45363;-76
2022/06/19 06:05:00;;;;;;;;;2.00;2.00;;;;;;;;5060951;28;45397;-74
2022/06/19 06:07:25;;;;;;;;;2.33;0.00;;;;;;;;5059311;28;46452;-75
2022/06/19 06:09:50;;;;;;;;;3.33;0.33;;;;;;;;5059781;28;45354;-75
2022/06/19 06:12:15;;;;;;;;;0.00;0.00;;;;;;;;5060324;28;45817;-75
2022/06/19 06:14:41;;;;;;;;;0.00;0.00;;;;;;;;5059474;28;45347;-77
2022/06/19 06:17:06;;;;;;;;;0.33;0.00;;;;;;;;5059188;28;45543;-77
2022/06/19 06:19:32;;;;;;;;;2.00;0.00;;;;;;;;5060401;28;45325;-75
2022/06/19 06:21:57;;;;;;;;;1.33;1.33;;;;;;;;5059650;28;45353;-76
2022/06/19 06:24:22;;;;;;;;;1.00;1.00;;;;;;;;5059487;28;45475;-75
2022/06/19 06:26:47;;;;;;;;;1.00;1.00;;;;;;;;5074759;28;46855;-77
2022/06/19 06:29:13;;;;;;;;;4.33;1.33;;;;;;;;5059156;28;45210;-76
2022/06/19 06:31:38;;;;;;;;;2.00;0.00;;;;;;;;5059510;28;45250;-76
2022/06/19 06:34:03;;;;;;;;;5.33;1.33;;;;;;;;5077239;28;45402;-76
2022/06/19 06:36:29;;;;;;;;;1.67;1.00;;;;;;;;5061654;28;46400;-76
2022/06/19 06:38:55;;;;;;;;;1.33;0.00;;;;;;;;5059296;28;45732;-76
2022/06/19 06:41:20;;;;;;;;;2.00;1.67;;;;;;;;5066421;28;45317;-76
2022/06/19 06:43:46;;;;;;;;;2.00;0.67;;;;;;;;5078598;28;45388;-77
2022/06/19 06:46:13;;;;;;;;;2.67;2.00;;;;;;;;5059935;28;46525;-76
2022/06/19 06:48:38;;;;;;;;;4.67;2.00;;;;;;;;5077838;28;45475;-75
2022/06/19 06:51:08;;;;;;;;;2.00;1.67;;;;;;;;5071561;28;45654;-71
2022/06/19 06:53:33;;;;;;;;;3.67;0.00;;;;;;;;5060135;28;45298;-71
2022/06/19 06:55:58;;;;;;;;;1.00;1.00;;;;;;;;5058464;28;45626;-73
2022/06/19 06:58:24;;;;;;;;;6.00;2.00;;;;;;;;5058706;28;45373;-73
2022/06/19 07:00:49;;;;;;;;;3.00;1.00;;;;;;;;5060745;28;45521;-74
2022/06/19 07:03:14;;;;;;;;;3.67;2.00;;;;;;;;5058696;28;45287;-73
2022/06/19 07:05:40;;;;;;;;;5.67;4.00;;;;;;;;5070216;28;46279;-70
2022/06/19 07:08:05;;;;;;;;;9.33;4.67;;;;;;;;5066909;28;45301;-71
2022/06/19 07:10:30;;;;;;;;;5.67;2.00;;;;;;;;5058396;28;45511;-71
2022/06/19 07:12:55;;;;;;;;;7.33;2.33;;;;;;;;5058302;28;45199;-70
2022/06/19 07:15:21;;;;;;;;;3.33;2.67;;;;;;;;5058479;28;45429;-72
2022/06/19 07:17:46;;;;;;;;;4.67;4.00;;;;;;;;5069636;28;45327;-72
2022/06/19 07:20:11;;;;;;;;;3.00;2.33;;;;;;;;5058497;28;45308;-72
2022/06/19 07:22:36;;;;;;;;;3.67;3.00;;;;;;;;5058566;28;45442;-72
2022/06/19 07:25:03;;;;;;;;;5.67;3.67;;;;;;;;5069077;28;45595;-72
2022/06/19 07:27:28;;;;;;;;;4.67;3.67;;;;;;;;5076699;28;45477;-72
2022/06/19 07:29:53;;;;;;;;;8.33;4.67;;;;;;;;5073220;28;45316;-72
2022/06/19 07:32:18;;;;;;;;;10.67;5.67;;;;;;;;5078214;28;45345;-71
2022/06/19 07:34:44;;;;;;;;;11.33;3.33;;;;;;;;5077880;28;46188;-72
2022/06/19 07:37:11;;;;;;;;;5.33;3.67;;;;;;;;5076294;28;45556;-71
2022/06/19 07:39:37;;;;;;;;;11.67;6.67;;;;;;;;5077899;28;45415;-72
2022/06/19 07:42:04;;;;;;;;;5.33;5.33;;;;;;;;5076646;28;45464;-72
2022/06/19 07:44:29;;;;;;;;;8.67;6.00;;;;;;;;5077998;28;45690;-72
2022/06/19 07:52:22;;;;;;;;;5.67;5.67;;;;;;;;5075833;28;45482;-69
2022/06/19 07:54:47;;;;;;;;;7.67;6.00;;;;;;;;5077733;28;45928;-72
2022/06/19 07:57:13;;;;;;;;;7.67;7.00;;;;;;;;5065012;28;45283;-72
2022/06/19 07:59:38;;;;;;;;;10.67;8.33;;;;;;;;5058743;28;45773;-71
2022/06/19 08:02:03;;;;;;;;;9.67;8.00;;;;;;;;5059094;28;45415;-72
2022/06/19 08:04:28;;;;;;;;;11.00;8.67;;;;;;;;5057755;28;45521;-72
2022/06/19 08:06:54;;;;;;;;;8.67;7.33;;;;;;;;5058630;28;45439;-72
2022/06/19 08:09:19;;;;;;;;;9.00;8.00;;;;;;;;5071139;28;45284;-71
2022/06/19 08:11:44;;;;;;;;;11.33;7.33;;;;;;;;5075921;28;45379;-72
2022/06/19 08:14:09;;;;;;;;;8.67;7.33;;;;;;;;5064578;28;46746;-72
2022/06/19 08:16:35;;;;;;;;;6.33;4.00;;;;;;;;5069820;28;45308;-72
2022/06/19 08:19:01;;;;;;;;;7.67;3.33;;;;;;;;5056836;28;45344;-72
2022/06/19 08:21:26;;;;;;;;;3.67;3.33;;;;;;;;5057682;28;45397;-72
2022/06/19 08:23:51;;;;;;;;;9.00;5.00;;;;;;;;5066645;28;46356;-72
2022/06/19 08:26:17;;;;;;;;;3.33;3.00;;;;;;;;5077506;28;45342;-72
2022/06/19 08:31:26;;;;;;;;;6.67;6.00;;;;;;;;5077544;28;45440;-72
2022/06/19 08:33:51;;;;;;;;;6.33;5.00;;;;;;;;5076770;28;46133;-72
2022/06/19 08:36:16;;;;;;;;;7.00;6.00;;;;;;;;5074210;28;45245;-73
2022/06/19 08:38:47;;;;;;;;;13.00;7.67;;;;;;;;5064102;28;45286;-72
2022/06/19 08:41:22;;;;;;;;;8.00;7.67;;;;;;;;5069648;28;45486;-72
2022/06/19 08:43:53;;;;;;;;;10.67;9.00;;;;;;;;5077271;28;46647;-72
2022/06/19 08:46:21;;;;;;;;;12.33;8.00;;;;;;;;5069646;28;45468;-72
2022/06/19 08:48:47;;;;;;;;;7.67;6.67;;;;;;;;5057157;28;45774;-72
2022/06/19 08:51:20;;;;;;;;;11.00;8.67;;;;;;;;5057228;28;45441;-72
2022/06/19 08:53:48;;;;;;;;;7.00;5.00;;;;;;;;5056877;28;46780;-72
2022/06/19 08:56:22;;;;;;;;;9.00;7.33;;;;;;;;5057957;28;45362;-71
2022/06/19 08:58:56;;;;;;;;;8.33;7.00;;;;;;;;5073778;28;45445;-73
2022/06/19 09:01:37;;;;;;;;;13.00;11.33;;;;;;;;5042814;28;45460;-71
2022/06/19 09:07:04;;;;;;;;;7.00;5.67;;;;;;;;5059760;28;45424;-72
2022/06/19 09:09:37;;;;;;;;;5.33;5.00;;;;;;;;5073034;28;45221;-72
2022/06/19 09:12:23;;;;;;;;;7.67;4.67;;;;;;;;5042049;28;45373;-72
2022/06/19 09:15:02;;;;;;;;;4.67;4.67;;;;;;;;5073137;28;45451;-72
2022/06/19 09:17:28;;;;;;;;;3.67;3.00;;;;;;;;5076701;28;45358;-72
2022/06/19 09:19:53;;;;;;;;;5.67;4.33;;;;;;;;5075046;28;45534;-71
2022/06/19 09:22:19;;;;;;;;;5.33;3.33;;;;;;;;5075690;28;45316;-71
2022/06/19 09:24:44;;;;;;;;;8.33;5.67;;;;;;;;5067480;28;46483;-72
2022/06/19 09:27:11;;;;;;;;;7.67;5.00;;;;;;;;5056737;28;45783;-71
2022/06/19 09:29:39;;;;;;;;;3.00;3.00;;;;;;;;5070476;28;45349;-71
2022/06/19 09:32:07;;;;;;;;;6.00;4.00;;;;;;;;5061711;28;45372;-72
2022/06/19 09:34:39;;;;;;;;;5.00;3.67;;;;;;;;5078335;28;45898;-72
2022/06/19 09:37:14;;;;;;;;;6.67;4.33;;;;;;;;5067720;28;45427;-72
2022/06/19 09:39:47;;;;;;;;;6.33;4.00;;;;;;;;5077262;28;45234;-72
2022/06/19 09:42:12;;;;;;;;;5.67;3.00;;;;;;;;5078717;28;45404;-72
2022/06/19 09:44:37;;;;;;;;;7.67;4.33;;;;;;;;5076467;28;46626;-72
2022/06/19 09:47:18;;;;;;;;;7.00;3.00;;;;;;;;5066782;28;45336;-72
2022/06/19 09:49:46;;;;;;;;;4.00;4.00;;;;;;;;5076006;28;46807;-71
2022/06/19 09:52:14;;;;;;;;;3.00;3.00;;;;;;;;5076512;28;45374;-71
2022/06/19 09:54:39;;;;;;;;;5.67;1.33;;;;;;;;5079606;28;45413;-71
2022/06/19 09:57:21;;;;;;;;;4.00;3.00;;;;;;;;5069019;28;45440;-72
2022/06/19 09:59:46;;;;;;;;;5.33;3.33;;;;;;;;5073543;28;45296;-71
2022/06/19 10:02:23;;;;;;;;;9.33;5.33;;;;;;;;5073212;28;45483;-72
2022/06/19 10:05:20;;;;;;;;;5.00;4.00;;;;;;;;5074668;28;45668;-72
2022/06/19 10:07:51;;;;;;;;;4.00;3.33;;;;;;;;5056942;28;45486;-71
2022/06/19 10:10:22;;;;;;;;;3.00;2.00;;;;;;;;5043468;28;45552;-71
2022/06/19 10:12:48;;;;;;;;;5.00;3.00;;;;;;;;5039469;28;45335;-72
2022/06/19 10:15:16;;;;;;;;;3.67;3.00;;;;;;;;5061327;28;46395;-72
2022/06/19 10:17:49;;;;;;;;;3.33;3.00;;;;;;;;5056495;28;45309;-72
2022/06/19 10:20:16;;;;;;;;;2.00;2.00;;;;;;;;5037353;28;45369;-72
2022/06/19 10:22:52;;;;;;;;;2.67;2.67;;;;;;;;5037264;28;45575;-71
2022/06/19 10:25:17;;;;;;;;;5.00;5.00;;;;;;;;5056976;28;45414;-72
2022/06/19 10:27:42;;;;;;;;;3.00;3.00;;;;;;;;5056403;28;45458;-71
2022/06/19 10:30:22;;;;;;;;;3.00;3.00;;;;;;;;5043343;28;45503;-72
2022/06/19 10:32:50;;;;;;;;;4.33;4.00;;;;;;;;5037358;28;45493;-72
2022/06/19 10:35:15;;;;;;;;;7.00;5.00;;;;;;;;5036530;28;45585;-71
2022/06/19 10:37:43;;;;;;;;;5.00;5.00;;;;;;;;5048074;28;45569;-72
2022/06/19 10:40:08;;;;;;;;;5.00;4.00;;;;;;;;5041251;28;45286;-72
2022/06/19 10:42:52;;;;;;;;;4.00;4.00;;;;;;;;5043096;28;45408;-71
2022/06/19 10:45:23;;;;;;;;;7.00;5.00;;;;;;;;5074153;28;46821;-71
2022/06/19 10:47:49;;;;;;;;;8.00;7.00;;;;;;;;5062798;28;45483;-72
2022/06/19 10:50:20;;;;;;;;;6.67;4.67;;;;;;;;5058955;28;45412;-71
2022/06/19 10:52:45;;;;;;;;;8.33;6.67;;;;;;;;5077360;28;45353;-71
2022/06/19 10:55:11;;;;;;;;;7.67;6.00;;;;;;;;5078799;28;46606;-71
2022/06/19 10:57:39;;;;;;;;;5.00;5.00;;;;;;;;5076324;28;45372;-71
2022/06/19 11:00:06;;;;;;;;;5.67;5.67;;;;;;;;5077130;28;45401;-71
2022/06/19 11:05:33;;;;;;;;;8.33;7.33;;;;;;;;5056862;28;45329;-72
2022/06/19 11:07:58;;;;;;;;;5.00;5.00;;;;;;;;5078820;28;45452;-72
2022/06/19 11:10:49;;;;;;;;;4.67;4.00;;;;;;;;5061875;28;45356;-73
2022/06/19 11:13:14;;;;;;;;;6.33;3.00;;;;;;;;5056665;28;45300;-73
2022/06/19 11:15:43;;;;;;;;;4.67;3.00;;;;;;;;5058142;28;47263;-73
2022/06/19 11:18:13;;;;;;;;;4.33;4.33;;;;;;;;5058638;28;45426;-73
2022/06/19 11:20:40;;;;;;;;;3.67;2.00;;;;;;;;5059560;28;45454;-72
2022/06/19 11:23:24;;;;;;;;;5.00;5.00;;;;;;;;5078788;28;45546;-73
2022/06/19 11:25:55;;;;;;;;;3.67;3.00;;;;;;;;5068187;28;46526;-73
2022/06/19 11:28:21;;;;;;;;;3.33;2.67;;;;;;;;5058105;28;45314;-72
2022/06/19 11:30:52;;;;;;;;;3.00;2.00;;;;;;;;5058259;28;45294;-73
2022/06/19 11:33:19;;;;;;;;;4.00;2.00;;;;;;;;5058598;28;45447;-73
2022/06/19 11:35:49;;;;;;;;;6.00;3.67;;;;;;;;5057728;28;45467;-72
2022/06/19 11:38:16;;;;;;;;;6.00;3.00;;;;;;;;5071187;28;45409;-72
2022/06/19 11:40:43;;;;;;;;;7.00;4.00;;;;;;;;5068134;28;45323;-71
2022/06/19 11:43:43;;;;;;;;;4.00;4.00;;;;;;;;5063185;28;45472;-72
2022/06/19 11:46:25;;;;;;;;;9.33;7.67;;;;;;;;5053604;28;45684;-72
2022/06/19 11:48:50;;;;;;;;;6.00;5.67;;;;;;;;5054817;28;45490;-71
2022/06/19 11:51:16;;;;;;;;;7.67;7.67;;;;;;;;5044551;28;45501;-70
2022/06/19 11:53:42;;;;;;;;;8.00;7.00;;;;;;;;5059812;28;45907;-72
2022/06/19 11:56:26;;;;;;;;;11.00;8.67;;;;;;;;5075601;28;45552;-71
2022/06/19 11:58:54;;;;;;;;;12.00;10.00;;;;;;;;5072606;28;45412;-70
2022/06/19 12:01:20;;;;;;;;;8.00;8.00;;;;;;;;5054619;28;45452;-68
2022/06/19 12:03:46;;;;;;;;;6.00;6.00;;;;;;;;5061642;28;45491;-68
2022/06/19 12:06:12;;;;;;;;;8.00;6.33;;;;;;;;5068492;28;46322;-68
2022/06/19 12:08:41;;;;;;;;;6.67;5.00;;;;;;;;5064462;28;45415;-69
2022/06/19 12:11:08;;;;;;;;;8.00;7.33;;;;;;;;5054589;28;45922;-69
2022/06/19 12:13:40;;;;;;;;;6.33;6.00;;;;;;;;5053503;28;45635;-72
2022/06/19 12:16:17;;;;;;;;;7.33;6.00;;;;;;;;5053945;28;46096;-73
2022/06/19 12:18:42;;;;;;;;;8.67;6.00;;;;;;;;5054128;28;46669;-74
2022/06/19 12:21:35;;;;;;;;;6.00;5.00;;;;;;;;5054640;28;45475;-70
2022/06/19 12:24:15;;;;;;;;;6.33;5.67;;;;;;;;5057148;28;45487;-69
2022/06/19 12:26:43;;;;;;;;;4.33;4.33;;;;;;;;5056529;28;46253;-68
2022/06/19 12:29:27;;;;;;;;;8.00;6.00;;;;;;;;5056339;28;45327;-68
2022/06/19 12:31:54;;;;;;;;;7.00;5.67;;;;;;;;5056826;28;45330;-68
2022/06/19 12:34:30;;;;;;;;;6.67;6.67;;;;;;;;5055682;28;45654;-70
2022/06/19 12:36:57;;;;;;;;;4.00;4.00;;;;;;;;5048414;28;45384;-68
2022/06/19 12:39:24;;;;;;;;;7.00;6.67;;;;;;;;5056483;28;45488;-68
2022/06/19 12:41:49;;;;;;;;;6.00;6.00;;;;;;;;5056845;28;45384;-69
2022/06/19 12:44:33;;;;;;;;;9.67;7.00;;;;;;;;5056819;28;45407;-69
2022/06/19 12:47:08;;;;;;;;;5.00;5.00;;;;;;;;5056115;28;46689;-68
2022/06/19 12:49:49;;;;;;;;;8.00;6.00;;;;;;;;5056566;28;45742;-72
2022/06/19 12:52:20;;;;;;;;;7.00;6.00;;;;;;;;5056567;28;45377;-71
2022/06/19 12:54:58;;;;;;;;;5.00;5.00;;;;;;;;5057233;28;45499;-71
2022/06/19 12:57:26;;;;;;;;;6.00;5.00;;;;;;;;5059743;28;46350;-68
2022/06/19 13:00:06;;;;;;;;;7.67;6.67;;;;;;;;5063041;28;45764;-69
2022/06/19 13:03:03;;;;;;;;;5.00;5.00;;;;;;;;5037222;28;45344;-69
2022/06/19 13:05:31;;;;;;;;;7.00;5.67;;;;;;;;5015314;28;45360;-71
2022/06/19 13:08:02;;;;;;;;;6.00;5.67;;;;;;;;5018148;28;46425;-68
2022/06/19 13:10:30;;;;;;;;;7.00;6.00;;;;;;;;5018280;28;45290;-68
2022/06/19 13:13:01;;;;;;;;;6.33;5.67;;;;;;;;5018438;28;45314;-68
2022/06/19 13:15:33;;;;;;;;;5.67;4.33;;;;;;;;5018078;28;45612;-68
2022/06/19 13:18:09;;;;;;;;;4.00;3.00;;;;;;;;5017971;28;45386;-71
2022/06/19 13:20:53;;;;;;;;;5.33;5.33;;;;;;;;5017819;28;45388;-68
2022/06/19 13:23:18;;;;;;;;;8.00;6.00;;;;;;;;5017968;28;45494;-69
2022/06/19 13:25:43;;;;;;;;;7.67;6.00;;;;;;;;5018268;28;45330;-71
2022/06/19 13:28:14;;;;;;;;;6.67;5.00;;;;;;;;5017952;28;46748;-69
2022/06/19 13:30:43;;;;;;;;;8.00;6.00;;;;;;;;5017867;28;45291;-71
2022/06/19 13:33:28;;;;;;;;;8.00;6.33;;;;;;;;5017891;28;45406;-71
2022/06/19 13:36:05;;;;;;;;;6.00;6.00;;;;;;;;5017812;28;45585;-76
2022/06/19 13:38:30;;;;;;;;;4.33;4.33;;;;;;;;5035475;28;45950;-71
2022/06/19 13:41:14;;;;;;;;;6.00;6.00;;;;;;;;5038623;28;45826;-72
2022/06/19 13:43:39;;;;;;;;;10.00;8.00;;;;;;;;5039950;28;45222;-70
2022/06/19 13:46:05;;;;;;;;;5.00;4.33;;;;;;;;5039902;28;45368;-69
2022/06/19 13:48:53;;;;;;;;;9.33;7.67;;;;;;;;5039744;28;47454;-69
2022/06/19 13:51:18;;;;;;;;;6.67;5.00;;;;;;;;4978234;28;45619;-69
2022/06/19 13:53:48;;;;;;;;;7.33;6.00;;;;;;;;4978213;28;45576;-69
2022/06/19 13:56:19;;;;;;;;;11.00;6.33;;;;;;;;4978197;28;45371;-69
2022/06/19 13:58:45;;;;;;;;;5.00;4.00;;;;;;;;4977667;28;46482;-69
2022/06/19 14:01:19;;;;;;;;;6.67;6.00;;;;;;;;4977672;28;45510;-70
2022/06/19 14:06:49;;;;;;;;;6.67;4.67;;;;;;;;4978140;28;45499;-69
2022/06/19 14:09:20;;;;;;;;;5.00;4.00;;;;;;;;4970604;28;46152;-69
2022/06/19 14:12:05;;;;;;;;;5.67;5.00;;;;;;;;4977839;28;45356;-70
2022/06/19 14:14:41;;;;;;;;;5.00;5.00;;;;;;;;4977814;28;45413;-70
2022/06/19 14:17:11;;;;;;;;;4.00;4.00;;;;;;;;4977761;28;45634;-69
2022/06/19 14:19:37;;;;;;;;;7.00;4.00;;;;;;;;4977554;28;46388;-69
2022/06/19 14:22:02;;;;;;;;;5.00;5.00;;;;;;;;4977644;28;45383;-69
2022/06/19 14:24:33;;;;;;;;;6.00;4.00;;;;;;;;4977703;28;45399;-69
2022/06/19 14:27:04;;;;;;;;;6.00;4.67;;;;;;;;4977965;28;45488;-74
2022/06/19 14:29:42;;;;;;;;;7.33;5.67;;;;;;;;5038075;28;46369;-71
2022/06/19 14:32:12;;;;;;;;;6.67;5.00;;;;;;;;5039093;28;45219;-73
2022/06/19 14:34:44;;;;;;;;;5.00;5.00;;;;;;;;5054394;28;45396;-72
2022/06/19 14:37:21;;;;;;;;;6.33;4.00;;;;;;;;5039065;28;45398;-73
2022/06/19 14:39:47;;;;;;;;;4.67;4.33;;;;;;;;5039011;28;46880;-73
2022/06/19 14:42:13;;;;;;;;;5.00;5.00;;;;;;;;5038854;28;45243;-71
2022/06/19 14:44:45;;;;;;;;;8.67;6.00;;;;;;;;5038862;28;45311;-72
2022/06/19 14:47:22;;;;;;;;;6.33;5.00;;;;;;;;5038941;28;45529;-71
2022/06/19 14:49:59;;;;;;;;;6.33;4.67;;;;;;;;5038914;28;47070;-73
2022/06/19 14:52:33;;;;;;;;;4.00;4.00;;;;;;;;5038759;28;45294;-73
2022/06/19 14:55:01;;;;;;;;;5.33;5.33;;;;;;;;5038672;28;45419;-70
2022/06/19 14:57:30;;;;;;;;;8.33;5.67;;;;;;;;5039046;28;45419;-72
2022/06/19 14:59:55;;;;;;;;;5.00;5.00;;;;;;;;5038243;28;45343;-72
2022/06/19 15:02:24;;;;;;;;;5.33;5.33;;;;;;;;5038358;28;45424;-70
2022/06/19 15:04:55;;;;;;;;;8.00;6.00;;;;;;;;5038799;28;45286;-70
2022/06/19 15:07:22;;;;;;;;;5.00;4.00;;;;;;;;5038837;28;45751;-72